CheckWX is a tool to help pilots better visualize weather data.  It is not intended as a substitute for an official pre-flight weather briefing.

21:53:01 UTC

KUES METAR
Waukesha County Airport
Waukesha, Wisconsin, USA
Current

8 mins ago

KUES 192145Z 16005KT 10SM SCT034 SCT050 BKN120 22/18 A3005
Observed
Sep-19 @ 21:45 UTC
Wind
  • 160° at 5 KTS
Visibility
10 SM
Flight Rules
VFR
Cloud Levels
  • Scattered at 3,400' AGL
  • Scattered at 5,000' AGL
  • Broken at 12,000' AGL
Temperature
22°C / 72°F
Dewpoint
18°C / 64°F
Humidity
78%
Altimeter
30.05" Hg
Pressure
1017.62 hPa
Previous

1 hour ago

KUES 192045Z 18004KT 10SM SCT049 SCT070 BKN100 23/18 A3008
Observed
Sep-19 @ 20:45 UTC
Wind
  • 180° at 4 KTS
Visibility
10 SM
Flight Rules
VFR
Cloud Levels
  • Scattered at 4,900' AGL
  • Scattered at 7,000' AGL
  • Broken at 10,000' AGL
Temperature
23°C / 73°F
Dewpoint
18°C / 64°F
Humidity
74%
Altimeter
30.08" Hg
Pressure
1018.62 hPa
Previous

2 hours ago

KUES 191945Z 15008KT 10SM SKC 23/17 A3007
Observed
Sep-19 @ 19:45 UTC
Wind
  • 150° at 8 KTS
Visibility
10 SM
Flight Rules
VFR
Cloud Levels
  • Clear skies
Temperature
23°C / 73°F
Dewpoint
17°C / 63°F
Humidity
69%
Altimeter
30.07" Hg
Pressure
1018.32 hPa